sensor_id;sensor_type;location;lat;lon;timestamp;temperature;humidity
2825;DHT22;1420;51.324;12.344;2024-03-06T00:00:51;4.20;99.90
2825;DHT22;1420;51.324;12.344;2024-03-06T00:03:18;4.30;99.90
2825;DHT22;1420;51.324;12.344;2024-03-06T00:05:45;4.20;99.90
2825;DHT22;1420;51.324;12.344;2024-03-06T00:08:13;4.20;99.90
2825;DHT22;1420;51.324;12.344;2024-03-06T00:10:40;4.20;99.90
2825;DHT22;1420;51.324;12.344;2024-03-06T00:13:08;4.10;99.90
2825;DHT22;1420;51.324;12.344;2024-03-06T00:15:36;4.20;99.90
2825;DHT22;1420;51.324;12.344;2024-03-06T00:18:04;4.20;99.90
2825;DHT22;1420;51.324;12.344;2024-03-06T00:20:31;4.10;99.90
2825;DHT22;1420;51.324;12.344;2024-03-06T00:22:58;4.20;99.90
2825;DHT22;1420;51.324;12.344;2024-03-06T00:25:25;4.30;99.90
2825;DHT22;1420;51.324;12.344;2024-03-06T00:27:53;4.20;99.90
2825;DHT22;1420;51.324;12.344;2024-03-06T00:30:20;4.20;99.90
2825;DHT22;1420;51.324;12.344;2024-03-06T00:32:47;4.20;99.90
2825;DHT22;1420;51.324;12.344;2024-03-06T00:35:14;4.20;99.90
2825;DHT22;1420;51.324;12.344;2024-03-06T00:37:41;4.20;99.90
2825;DHT22;1420;51.324;12.344;2024-03-06T00:40:09;4.10;99.90
2825;DHT22;1420;51.324;12.344;2024-03-06T00:42:37;4.20;99.90
2825;DHT22;1420;51.324;12.344;2024-03-06T00:45:05;4.20;99.90
2825;DHT22;1420;51.324;12.344;2024-03-06T00:47:32;4.20;99.90
2825;DHT22;1420;51.324;12.344;2024-03-06T00:50:00;4.00;99.90
2825;DHT22;1420;51.324;12.344;2024-03-06T00:52:28;4.00;99.90
2825;DHT22;1420;51.324;12.344;2024-03-06T00:54:55;4.00;99.90
2825;DHT22;1420;51.324;12.344;2024-03-06T00:57:23;4.00;99.90
2825;DHT22;1420;51.324;12.344;2024-03-06T00:59:49;3.90;99.90
2825;DHT22;1420;51.324;12.344;2024-03-06T01:02:17;4.00;99.90
2825;DHT22;1420;51.324;12.344;2024-03-06T01:04:44;3.90;99.90
2825;DHT22;1420;51.324;12.344;2024-03-06T01:07:11;3.90;99.90
2825;DHT22;1420;51.324;12.344;2024-03-06T01:09:38;3.80;99.90
2825;DHT22;1420;51.324;12.344;2024-03-06T01:12:05;3.70;99.90
2825;DHT22;1420;51.324;12.344;2024-03-06T01:14:32;3.70;99.90
2825;DHT22;1420;51.324;12.344;2024-03-06T01:17:00;3.60;99.90
2825;DHT22;1420;51.324;12.344;2024-03-06T01:19:32;3.50;99.90
2825;DHT22;1420;51.324;12.344;2024-03-06T01:22:04;3.50;99.90
2825;DHT22;1420;51.324;12.344;2024-03-06T01:24:31;3.40;99.90
2825;DHT22;1420;51.324;12.344;2024-03-06T01:26:58;3.40;99.90
2825;DHT22;1420;51.324;12.344;2024-03-06T01:29:26;3.20;99.90
2825;DHT22;1420;51.324;12.344;2024-03-06T01:31:54;3.20;99.90
2825;DHT22;1420;51.324;12.344;2024-03-06T01:34:22;3.20;99.90
2825;DHT22;1420;51.324;12.344;2024-03-06T01:36:50;3.10;99.90
2825;DHT22;1420;51.324;12.344;2024-03-06T01:39:17;3.10;99.90
2825;DHT22;1420;51.324;12.344;2024-03-06T01:41:48;3.10;99.90
2825;DHT22;1420;51.324;12.344;2024-03-06T01:44:15;3.10;99.90
2825;DHT22;1420;51.324;12.344;2024-03-06T01:46:42;3.20;99.90
2825;DHT22;1420;51.324;12.344;2024-03-06T01:49:09;3.10;99.90
2825;DHT22;1420;51.324;12.344;2024-03-06T01:51:36;3.10;99.90
2825;DHT22;1420;51.324;12.344;2024-03-06T01:54:03;3.10;99.90
2825;DHT22;1420;51.324;12.344;2024-03-06T01:56:31;3.00;99.90
2825;DHT22;1420;51.324;12.344;2024-03-06T01:58:58;2.90;99.90
2825;DHT22;1420;51.324;12.344;2024-03-06T02:01:25;2.90;99.90
2825;DHT22;1420;51.324;12.344;2024-03-06T02:03:53;2.80;99.90
2825;DHT22;1420;51.324;12.344;2024-03-06T02:06:21;2.80;99.90
2825;DHT22;1420;51.324;12.344;2024-03-06T02:08:49;2.80;99.90
2825;DHT22;1420;51.324;12.344;2024-03-06T02:11:16;2.80;99.90
2825;DHT22;1420;51.324;12.344;2024-03-06T02:13:43;2.80;99.90
2825;DHT22;1420;51.324;12.344;2024-03-06T02:16:10;2.80;99.90
2825;DHT22;1420;51.324;12.344;2024-03-06T02:18:49;2.70;99.90
2825;DHT22;1420;51.324;12.344;2024-03-06T02:21:05;2.70;99.90
2825;DHT22;1420;51.324;12.344;2024-03-06T02:23:32;2.70;99.90
2825;DHT22;1420;51.324;12.344;2024-03-06T02:25:59;2.60;99.90
2825;DHT22;1420;51.324;12.344;2024-03-06T02:28:27;2.60;99.90
2825;DHT22;1420;51.324;12.344;2024-03-06T02:30:55;2.70;99.90
2825;DHT22;1420;51.324;12.344;2024-03-06T02:33:23;2.60;99.90
2825;DHT22;1420;51.324;12.344;2024-03-06T02:35:50;2.60;99.90
2825;DHT22;1420;51.324;12.344;2024-03-06T02:38:17;2.70;99.90
2825;DHT22;1420;51.324;12.344;2024-03-06T02:40:45;2.60;99.90
2825;DHT22;1420;51.324;12.344;2024-03-06T02:43:12;2.70;99.90
2825;DHT22;1420;51.324;12.344;2024-03-06T02:45:39;2.70;99.90
2825;DHT22;1420;51.324;12.344;2024-03-06T02:48:07;2.60;99.90
2825;DHT22;1420;51.324;12.344;2024-03-06T02:50:34;2.60;99.90
2825;DHT22;1420;51.324;12.344;2024-03-06T02:53:02;2.50;99.90
2825;DHT22;1420;51.324;12.344;2024-03-06T02:55:29;2.40;99.90
2825;DHT22;1420;51.324;12.344;2024-03-06T02:57:56;2.40;99.90
2825;DHT22;1420;51.324;12.344;2024-03-06T03:00:23;2.30;99.90
2825;DHT22;1420;51.324;12.344;2024-03-06T03:02:50;2.30;99.90
2825;DHT22;1420;51.324;12.344;2024-03-06T03:05:18;2.40;99.90
2825;DHT22;1420;51.324;12.344;2024-03-06T03:07:45;2.40;99.90
2825;DHT22;1420;51.324;12.344;2024-03-06T03:10:12;2.30;99.90
2825;DHT22;1420;51.324;12.344;2024-03-06T03:12:39;2.30;99.90
2825;DHT22;1420;51.324;12.344;2024-03-06T03:15:07;2.30;99.90
2825;DHT22;1420;51.324;12.344;2024-03-06T03:17:34;2.20;99.90
2825;DHT22;1420;51.324;12.344;2024-03-06T03:20:02;2.20;99.90
2825;DHT22;1420;51.324;12.344;2024-03-06T03:22:32;2.20;99.90
2825;DHT22;1420;51.324;12.344;2024-03-06T03:24:59;2.10;99.90
2825;DHT22;1420;51.324;12.344;2024-03-06T03:27:26;2.20;99.90
2825;DHT22;1420;51.324;12.344;2024-03-06T03:29:53;2.10;99.90
2825;DHT22;1420;51.324;12.344;2024-03-06T03:32:21;2.10;99.90
2825;DHT22;1420;51.324;12.344;2024-03-06T03:34:48;2.10;99.90
2825;DHT22;1420;51.324;12.344;2024-03-06T03:37:15;2.00;99.90
2825;DHT22;1420;51.324;12.344;2024-03-06T03:39:45;2.20;99.90
2825;DHT22;1420;51.324;12.344;2024-03-06T03:42:12;2.10;99.90
2825;DHT22;1420;51.324;12.344;2024-03-06T03:44:40;2.10;99.90
2825;DHT22;1420;51.324;12.344;2024-03-06T03:47:07;2.10;99.90
2825;DHT22;1420;51.324;12.344;2024-03-06T03:49:35;2.10;99.90
2825;DHT22;1420;51.324;12.344;2024-03-06T03:52:03;2.00;99.90
2825;DHT22;1420;51.324;12.344;2024-03-06T03:54:30;2.00;99.90
2825;DHT22;1420;51.324;12.344;2024-03-06T03:56:57;2.00;99.90
2825;DHT22;1420;51.324;12.344;2024-03-06T03:59:25;1.90;99.90
2825;DHT22;1420;51.324;12.344;2024-03-06T04:01:52;2.00;99.90
2825;DHT22;1420;51.324;12.344;2024-03-06T04:04:19;2.00;99.90
2825;DHT22;1420;51.324;12.344;2024-03-06T04:06:46;1.90;99.90
2825;DHT22;1420;51.324;12.344;2024-03-06T04:09:14;1.80;99.90
2825;DHT22;1420;51.324;12.344;2024-03-06T04:11:42;1.80;99.90
2825;DHT22;1420;51.324;12.344;2024-03-06T04:14:10;1.90;99.90
2825;DHT22;1420;51.324;12.344;2024-03-06T04:16:37;1.80;99.90
2825;DHT22;1420;51.324;12.344;2024-03-06T04:19:05;1.80;99.90
2825;DHT22;1420;51.324;12.344;2024-03-06T04:21:32;1.80;99.90
2825;DHT22;1420;51.324;12.344;2024-03-06T04:23:59;1.70;99.90
2825;DHT22;1420;51.324;12.344;2024-03-06T04:26:26;1.70;99.90
2825;DHT22;1420;51.324;12.344;2024-03-06T04:28:53;1.70;99.90
2825;DHT22;1420;51.324;12.344;2024-03-06T04:31:21;1.70;99.90
2825;DHT22;1420;51.324;12.344;2024-03-06T04:33:49;1.60;99.90
2825;DHT22;1420;51.324;12.344;2024-03-06T04:36:17;1.70;99.90
2825;DHT22;1420;51.324;12.344;2024-03-06T04:38:44;1.70;99.90
2825;DHT22;1420;51.324;12.344;2024-03-06T04:41:11;1.70;99.90
2825;DHT22;1420;51.324;12.344;2024-03-06T04:43:38;1.70;99.90
2825;DHT22;1420;51.324;12.344;2024-03-06T04:46:05;1.70;99.90
2825;DHT22;1420;51.324;12.344;2024-03-06T04:48:33;1.60;99.90
2825;DHT22;1420;51.324;12.344;2024-03-06T04:51:00;1.70;99.90
2825;DHT22;1420;51.324;12.344;2024-03-06T04:53:27;1.60;99.90
2825;DHT22;1420;51.324;12.344;2024-03-06T04:55:54;1.70;99.90
2825;DHT22;1420;51.324;12.344;2024-03-06T04:58:22;1.60;99.90
2825;DHT22;1420;51.324;12.344;2024-03-06T05:00:49;1.50;99.90
2825;DHT22;1420;51.324;12.344;2024-03-06T05:03:17;1.50;99.90
2825;DHT22;1420;51.324;12.344;2024-03-06T05:05:45;1.50;99.90
2825;DHT22;1420;51.324;12.344;2024-03-06T05:08:13;1.50;99.90
2825;DHT22;1420;51.324;12.344;2024-03-06T05:10:40;1.50;99.90
2825;DHT22;1420;51.324;12.344;2024-03-06T05:13:07;1.50;99.90
2825;DHT22;1420;51.324;12.344;2024-03-06T05:15:35;1.60;99.90
2825;DHT22;1420;51.324;12.344;2024-03-06T05:18:02;1.50;99.90
2825;DHT22;1420;51.324;12.344;2024-03-06T05:20:29;1.50;99.90
2825;DHT22;1420;51.324;12.344;2024-03-06T05:22:56;1.50;99.90
2825;DHT22;1420;51.324;12.344;2024-03-06T05:25:23;1.50;99.90
2825;DHT22;1420;51.324;12.344;2024-03-06T05:27:51;1.50;99.90
2825;DHT22;1420;51.324;12.344;2024-03-06T05:30:18;1.50;99.90
2825;DHT22;1420;51.324;12.344;2024-03-06T05:32:46;1.40;99.90
2825;DHT22;1420;51.324;12.344;2024-03-06T05:35:14;1.40;99.90
2825;DHT22;1420;51.324;12.344;2024-03-06T05:37:41;1.30;99.90
2825;DHT22;1420;51.324;12.344;2024-03-06T05:40:09;1.40;99.90
2825;DHT22;1420;51.324;12.344;2024-03-06T05:42:36;1.40;99.90
2825;DHT22;1420;51.324;12.344;2024-03-06T05:45:04;1.30;99.90
2825;DHT22;1420;51.324;12.344;2024-03-06T05:47:33;1.40;99.90
2825;DHT22;1420;51.324;12.344;2024-03-06T05:50:01;1.30;99.90
2825;DHT22;1420;51.324;12.344;2024-03-06T05:52:28;1.30;99.90
2825;DHT22;1420;51.324;12.344;2024-03-06T05:54:55;2.00;99.90
2825;DHT22;1420;51.324;12.344;2024-03-06T05:57:22;2.90;99.90
2825;DHT22;1420;51.324;12.344;2024-03-06T05:59:50;2.80;99.90
2825;DHT22;1420;51.324;12.344;2024-03-06T06:02:17;2.70;99.90
2825;DHT22;1420;51.324;12.344;2024-03-06T06:04:44;2.60;99.90
2825;DHT22;1420;51.324;12.344;2024-03-06T06:07:11;3.10;99.90
2825;DHT22;1420;51.324;12.344;2024-03-06T06:09:39;3.70;99.90
2825;DHT22;1420;51.324;12.344;2024-03-06T06:12:07;2.60;99.90
2825;DHT22;1420;51.324;12.344;2024-03-06T06:14:35;2.20;99.90
2825;DHT22;1420;51.324;12.344;2024-03-06T06:17:03;1.90;99.90
2825;DHT22;1420;51.324;12.344;2024-03-06T06:19:30;1.90;99.90
2825;DHT22;1420;51.324;12.344;2024-03-06T06:21:58;1.80;99.90
2825;DHT22;1420;51.324;12.344;2024-03-06T06:24:26;1.80;99.90
2825;DHT22;1420;51.324;12.344;2024-03-06T06:26:54;1.80;99.90
2825;DHT22;1420;51.324;12.344;2024-03-06T06:29:21;1.70;99.90
2825;DHT22;1420;51.324;12.344;2024-03-06T06:31:48;1.80;99.90
2825;DHT22;1420;51.324;12.344;2024-03-06T06:34:16;1.80;99.90
2825;DHT22;1420;51.324;12.344;2024-03-06T06:36:45;1.90;99.90
2825;DHT22;1420;51.324;12.344;2024-03-06T06:39:12;2.20;99.90
2825;DHT22;1420;51.324;12.344;2024-03-06T06:41:40;2.70;99.90
2825;DHT22;1420;51.324;12.344;2024-03-06T06:44:08;3.10;99.90
2825;DHT22;1420;51.324;12.344;2024-03-06T06:46:35;3.10;99.90
2825;DHT22;1420;51.324;12.344;2024-03-06T06:49:02;3.30;99.90
2825;DHT22;1420;51.324;12.344;2024-03-06T06:51:29;3.40;99.90
2825;DHT22;1420;51.324;12.344;2024-03-06T06:53:57;3.50;99.90
2825;DHT22;1420;51.324;12.344;2024-03-06T06:56:24;3.70;99.90
2825;DHT22;1420;51.324;12.344;2024-03-06T06:58:51;4.10;99.90
2825;DHT22;1420;51.324;12.344;2024-03-06T07:01:18;4.10;99.90
2825;DHT22;1420;51.324;12.344;2024-03-06T07:03:46;4.70;99.90
2825;DHT22;1420;51.324;12.344;2024-03-06T07:06:14;4.50;99.90
2825;DHT22;1420;51.324;12.344;2024-03-06T07:08:42;4.40;99.90
2825;DHT22;1420;51.324;12.344;2024-03-06T07:11:09;5.30;99.90
2825;DHT22;1420;51.324;12.344;2024-03-06T07:13:37;5.40;99.90
2825;DHT22;1420;51.324;12.344;2024-03-06T07:16:06;5.50;99.90
2825;DHT22;1420;51.324;12.344;2024-03-06T07:18:33;5.50;99.90
2825;DHT22;1420;51.324;12.344;2024-03-06T07:21:01;5.50;99.90
2825;DHT22;1420;51.324;12.344;2024-03-06T07:23:29;5.50;99.90
2825;DHT22;1420;51.324;12.344;2024-03-06T07:25:57;5.70;99.90
2825;DHT22;1420;51.324;12.344;2024-03-06T07:28:25;5.90;99.90
2825;DHT22;1420;51.324;12.344;2024-03-06T07:30:53;6.00;99.90
2825;DHT22;1420;51.324;12.344;2024-03-06T07:33:21;6.20;99.90
2825;DHT22;1420;51.324;12.344;2024-03-06T07:35:49;6.30;99.90
2825;DHT22;1420;51.324;12.344;2024-03-06T07:38:17;6.40;99.90
2825;DHT22;1420;51.324;12.344;2024-03-06T07:40:44;6.30;99.90
2825;DHT22;1420;51.324;12.344;2024-03-06T07:43:11;6.50;99.90
2825;DHT22;1420;51.324;12.344;2024-03-06T07:45:38;6.80;99.90
2825;DHT22;1420;51.324;12.344;2024-03-06T07:48:06;6.80;99.90
2825;DHT22;1420;51.324;12.344;2024-03-06T07:50:33;6.90;99.90
2825;DHT22;1420;51.324;12.344;2024-03-06T07:53:01;6.80;99.90
2825;DHT22;1420;51.324;12.344;2024-03-06T07:55:29;6.90;99.90
2825;DHT22;1420;51.324;12.344;2024-03-06T07:57:57;6.90;99.90
2825;DHT22;1420;51.324;12.344;2024-03-06T08:00:24;6.90;99.90
2825;DHT22;1420;51.324;12.344;2024-03-06T08:02:51;7.00;99.90
2825;DHT22;1420;51.324;12.344;2024-03-06T08:05:18;6.80;99.90
2825;DHT22;1420;51.324;12.344;2024-03-06T08:07:45;6.80;99.90
2825;DHT22;1420;51.324;12.344;2024-03-06T08:10:13;6.80;99.90
2825;DHT22;1420;51.324;12.344;2024-03-06T08:12:41;6.70;99.90
2825;DHT22;1420;51.324;12.344;2024-03-06T08:15:10;7.20;99.90
2825;DHT22;1420;51.324;12.344;2024-03-06T08:17:40;7.20;99.90
2825;DHT22;1420;51.324;12.344;2024-03-06T08:20:08;7.50;99.90
2825;DHT22;1420;51.324;12.344;2024-03-06T08:22:35;7.50;99.90
2825;DHT22;1420;51.324;12.344;2024-03-06T08:25:02;7.90;99.90
2825;DHT22;1420;51.324;12.344;2024-03-06T08:27:30;7.90;99.90
2825;DHT22;1420;51.324;12.344;2024-03-06T08:29:57;7.70;99.90
2825;DHT22;1420;51.324;12.344;2024-03-06T08:32:24;7.70;99.90
2825;DHT22;1420;51.324;12.344;2024-03-06T08:34:52;7.70;99.90
2825;DHT22;1420;51.324;12.344;2024-03-06T08:37:19;7.60;99.90
2825;DHT22;1420;51.324;12.344;2024-03-06T08:39:46;7.70;99.90
2825;DHT22;1420;51.324;12.344;2024-03-06T08:42:13;7.60;99.90
2825;DHT22;1420;51.324;12.344;2024-03-06T08:44:40;7.60;99.90
2825;DHT22;1420;51.324;12.344;2024-03-06T08:47:08;7.40;99.90
2825;DHT22;1420;51.324;12.344;2024-03-06T08:49:35;7.00;99.90
2825;DHT22;1420;51.324;12.344;2024-03-06T08:52:02;6.90;99.90
2825;DHT22;1420;51.324;12.344;2024-03-06T08:54:30;7.40;99.90
2825;DHT22;1420;51.324;12.344;2024-03-06T08:56:57;7.30;99.90
2825;DHT22;1420;51.324;12.344;2024-03-06T08:59:25;7.50;99.90
2825;DHT22;1420;51.324;12.344;2024-03-06T09:01:53;8.20;99.90
2825;DHT22;1420;51.324;12.344;2024-03-06T09:04:19;8.10;99.90
2825;DHT22;1420;51.324;12.344;2024-03-06T09:06:47;7.60;99.90
2825;DHT22;1420;51.324;12.344;2024-03-06T09:09:16;7.90;99.90
2825;DHT22;1420;51.324;12.344;2024-03-06T09:11:44;7.90;99.90
2825;DHT22;1420;51.324;12.344;2024-03-06T09:14:12;7.50;99.90
2825;DHT22;1420;51.324;12.344;2024-03-06T09:16:40;7.70;99.90
2825;DHT22;1420;51.324;12.344;2024-03-06T09:19:08;7.60;99.90
2825;DHT22;1420;51.324;12.344;2024-03-06T09:21:36;7.50;99.90
2825;DHT22;1420;51.324;12.344;2024-03-06T09:24:04;7.40;99.90
2825;DHT22;1420;51.324;12.344;2024-03-06T09:26:31;7.40;99.90
2825;DHT22;1420;51.324;12.344;2024-03-06T09:28:58;7.60;99.90
2825;DHT22;1420;51.324;12.344;2024-03-06T09:31:26;7.70;99.90
2825;DHT22;1420;51.324;12.344;2024-03-06T09:33:53;7.90;99.90
2825;DHT22;1420;51.324;12.344;2024-03-06T09:36:20;7.80;99.90
2825;DHT22;1420;51.324;12.344;2024-03-06T09:38:47;8.00;99.90
2825;DHT22;1420;51.324;12.344;2024-03-06T09:41:15;7.80;99.90
2825;DHT22;1420;51.324;12.344;2024-03-06T09:43:43;8.10;99.90
2825;DHT22;1420;51.324;12.344;2024-03-06T09:46:09;8.60;99.90
2825;DHT22;1420;51.324;12.344;2024-03-06T09:48:36;8.70;99.90
2825;DHT22;1420;51.324;12.344;2024-03-06T09:51:04;8.60;99.90
2825;DHT22;1420;51.324;12.344;2024-03-06T09:53:31;8.30;99.90
2825;DHT22;1420;51.324;12.344;2024-03-06T09:55:58;8.70;99.90
2825;DHT22;1420;51.324;12.344;2024-03-06T09:58:25;8.80;99.90
2825;DHT22;1420;51.324;12.344;2024-03-06T10:00:53;8.70;99.90
2825;DHT22;1420;51.324;12.344;2024-03-06T10:03:20;8.60;99.90
2825;DHT22;1420;51.324;12.344;2024-03-06T10:05:47;8.80;99.90
2825;DHT22;1420;51.324;12.344;2024-03-06T10:08:14;8.80;99.90
2825;DHT22;1420;51.324;12.344;2024-03-06T10:10:42;8.90;99.90
2825;DHT22;1420;51.324;12.344;2024-03-06T10:13:08;8.70;99.90
2825;DHT22;1420;51.324;12.344;2024-03-06T10:15:36;9.00;99.90
2825;DHT22;1420;51.324;12.344;2024-03-06T10:18:17;8.60;99.90
2825;DHT22;1420;51.324;12.344;2024-03-06T10:20:44;8.60;99.90
2825;DHT22;1420;51.324;12.344;2024-03-06T10:23:12;8.70;99.90
2825;DHT22;1420;51.324;12.344;2024-03-06T10:25:42;8.90;99.90
2825;DHT22;1420;51.324;12.344;2024-03-06T10:28:08;8.80;99.90
2825;DHT22;1420;51.324;12.344;2024-03-06T10:30:36;8.90;99.90
2825;DHT22;1420;51.324;12.344;2024-03-06T10:33:03;9.00;99.90
2825;DHT22;1420;51.324;12.344;2024-03-06T10:35:30;8.70;99.90
2825;DHT22;1420;51.324;12.344;2024-03-06T10:37:59;8.80;99.90
2825;DHT22;1420;51.324;12.344;2024-03-06T10:40:26;8.70;99.90
2825;DHT22;1420;51.324;12.344;2024-03-06T10:42:53;9.00;99.90
2825;DHT22;1420;51.324;12.344;2024-03-06T10:45:23;9.00;99.90
2825;DHT22;1420;51.324;12.344;2024-03-06T10:47:49;9.00;99.90
2825;DHT22;1420;51.324;12.344;2024-03-06T10:50:16;9.00;99.90
2825;DHT22;1420;51.324;12.344;2024-03-06T10:52:43;9.20;99.90
2825;DHT22;1420;51.324;12.344;2024-03-06T10:55:11;8.90;99.90
2825;DHT22;1420;51.324;12.344;2024-03-06T10:57:37;9.20;99.90
2825;DHT22;1420;51.324;12.344;2024-03-06T11:00:06;9.40;99.90
2825;DHT22;1420;51.324;12.344;2024-03-06T11:02:34;8.90;99.90
2825;DHT22;1420;51.324;12.344;2024-03-06T11:05:01;8.90;99.90
2825;DHT22;1420;51.324;12.344;2024-03-06T11:07:28;8.90;99.90
2825;DHT22;1420;51.324;12.344;2024-03-06T11:09:58;9.10;99.90
2825;DHT22;1420;51.324;12.344;2024-03-06T11:12:38;9.00;99.90
2825;DHT22;1420;51.324;12.344;2024-03-06T11:15:16;9.40;99.90
2825;DHT22;1420;51.324;12.344;2024-03-06T11:17:43;9.30;99.90
2825;DHT22;1420;51.324;12.344;2024-03-06T11:20:16;9.10;99.90
2825;DHT22;1420;51.324;12.344;2024-03-06T11:23:07;8.90;99.90
2825;DHT22;1420;51.324;12.344;2024-03-06T11:26:07;8.80;99.90
2825;DHT22;1420;51.324;12.344;2024-03-06T11:28:36;8.90;99.90
2825;DHT22;1420;51.324;12.344;2024-03-06T11:31:03;9.20;99.90
2825;DHT22;1420;51.324;12.344;2024-03-06T11:33:36;9.20;99.90
2825;DHT22;1420;51.324;12.344;2024-03-06T11:38:55;9.20;99.90
2825;DHT22;1420;51.324;12.344;2024-03-06T11:41:22;9.00;99.90
2825;DHT22;1420;51.324;12.344;2024-03-06T11:43:49;8.90;99.90
2825;DHT22;1420;51.324;12.344;2024-03-06T11:46:18;8.70;99.90
2825;DHT22;1420;51.324;12.344;2024-03-06T11:48:52;9.00;99.90
2825;DHT22;1420;51.324;12.344;2024-03-06T11:51:19;8.90;99.90
2825;DHT22;1420;51.324;12.344;2024-03-06T11:53:49;9.10;99.90
2825;DHT22;1420;51.324;12.344;2024-03-06T11:56:14;8.60;99.90
2825;DHT22;1420;51.324;12.344;2024-03-06T11:58:42;8.70;99.90
2825;DHT22;1420;51.324;12.344;2024-03-06T12:01:10;8.90;99.90
2825;DHT22;1420;51.324;12.344;2024-03-06T12:03:38;9.00;99.90
2825;DHT22;1420;51.324;12.344;2024-03-06T12:06:06;8.60;99.90
2825;DHT22;1420;51.324;12.344;2024-03-06T12:08:33;8.60;99.90
2825;DHT22;1420;51.324;12.344;2024-03-06T12:11:00;8.40;99.90
2825;DHT22;1420;51.324;12.344;2024-03-06T12:13:28;8.50;99.90
2825;DHT22;1420;51.324;12.344;2024-03-06T12:15:55;8.70;99.90
2825;DHT22;1420;51.324;12.344;2024-03-06T12:18:24;8.90;99.90
2825;DHT22;1420;51.324;12.344;2024-03-06T12:20:51;9.00;99.90
2825;DHT22;1420;51.324;12.344;2024-03-06T12:23:22;8.70;99.90
2825;DHT22;1420;51.324;12.344;2024-03-06T12:25:49;8.60;99.90
2825;DHT22;1420;51.324;12.344;2024-03-06T12:28:16;9.00;99.90
2825;DHT22;1420;51.324;12.344;2024-03-06T12:30:44;8.90;99.90
2825;DHT22;1420;51.324;12.344;2024-03-06T12:33:11;8.80;99.90
2825;DHT22;1420;51.324;12.344;2024-03-06T12:35:38;8.80;99.90
2825;DHT22;1420;51.324;12.344;2024-03-06T12:38:13;8.80;99.90
2825;DHT22;1420;51.324;12.344;2024-03-06T12:40:39;8.90;99.90
2825;DHT22;1420;51.324;12.344;2024-03-06T12:43:06;9.00;99.90
2825;DHT22;1420;51.324;12.344;2024-03-06T12:45:34;8.80;99.90
2825;DHT22;1420;51.324;12.344;2024-03-06T12:48:01;9.00;99.90
2825;DHT22;1420;51.324;12.344;2024-03-06T12:50:28;8.60;99.90
2825;DHT22;1420;51.324;12.344;2024-03-06T12:52:55;8.60;99.90
2825;DHT22;1420;51.324;12.344;2024-03-06T12:55:22;8.70;99.90
2825;DHT22;1420;51.324;12.344;2024-03-06T12:57:49;8.40;99.90
2825;DHT22;1420;51.324;12.344;2024-03-06T13:00:18;8.30;99.90
2825;DHT22;1420;51.324;12.344;2024-03-06T13:02:45;8.20;99.90
2825;DHT22;1420;51.324;12.344;2024-03-06T13:05:12;8.30;99.90
2825;DHT22;1420;51.324;12.344;2024-03-06T13:07:39;8.60;99.90
2825;DHT22;1420;51.324;12.344;2024-03-06T13:10:07;8.70;99.90
2825;DHT22;1420;51.324;12.344;2024-03-06T13:12:34;8.70;99.90
2825;DHT22;1420;51.324;12.344;2024-03-06T13:15:01;9.00;99.90
2825;DHT22;1420;51.324;12.344;2024-03-06T13:17:28;9.00;99.90
2825;DHT22;1420;51.324;12.344;2024-03-06T13:19:56;8.90;99.90
2825;DHT22;1420;51.324;12.344;2024-03-06T13:22:23;8.50;99.90
2825;DHT22;1420;51.324;12.344;2024-03-06T13:24:50;8.40;99.90
2825;DHT22;1420;51.324;12.344;2024-03-06T13:27:17;8.40;99.90
2825;DHT22;1420;51.324;12.344;2024-03-06T13:29:45;8.40;99.90
2825;DHT22;1420;51.324;12.344;2024-03-06T13:32:12;8.30;99.90
2825;DHT22;1420;51.324;12.344;2024-03-06T13:34:39;8.40;99.90
2825;DHT22;1420;51.324;12.344;2024-03-06T13:37:07;8.40;99.90
2825;DHT22;1420;51.324;12.344;2024-03-06T13:39:36;8.30;99.90
2825;DHT22;1420;51.324;12.344;2024-03-06T13:42:03;8.30;99.90
2825;DHT22;1420;51.324;12.344;2024-03-06T13:44:31;8.20;99.90
2825;DHT22;1420;51.324;12.344;2024-03-06T13:46:58;8.30;99.90
2825;DHT22;1420;51.324;12.344;2024-03-06T13:49:36;8.20;99.90
2825;DHT22;1420;51.324;12.344;2024-03-06T13:52:02;8.20;99.90
2825;DHT22;1420;51.324;12.344;2024-03-06T13:54:29;8.20;99.90
2825;DHT22;1420;51.324;12.344;2024-03-06T13:56:57;8.10;99.90
2825;DHT22;1420;51.324;12.344;2024-03-06T13:59:24;7.90;99.90
2825;DHT22;1420;51.324;12.344;2024-03-06T14:01:51;8.00;99.90
2825;DHT22;1420;51.324;12.344;2024-03-06T14:04:18;7.90;99.90
2825;DHT22;1420;51.324;12.344;2024-03-06T14:06:45;7.90;99.90
2825;DHT22;1420;51.324;12.344;2024-03-06T14:09:12;7.70;99.90
2825;DHT22;1420;51.324;12.344;2024-03-06T14:11:40;7.80;99.90
2825;DHT22;1420;51.324;12.344;2024-03-06T14:14:07;8.10;99.90
2825;DHT22;1420;51.324;12.344;2024-03-06T14:16:34;8.10;99.90
2825;DHT22;1420;51.324;12.344;2024-03-06T14:19:01;8.10;99.90
2825;DHT22;1420;51.324;12.344;2024-03-06T14:21:28;8.10;99.90
2825;DHT22;1420;51.324;12.344;2024-03-06T14:23:56;8.00;99.60
2825;DHT22;1420;51.324;12.344;2024-03-06T14:26:23;8.10;98.70
2825;DHT22;1420;51.324;12.344;2024-03-06T14:28:50;8.20;98.00
2825;DHT22;1420;51.324;12.344;2024-03-06T14:31:17;8.00;98.20
2825;DHT22;1420;51.324;12.344;2024-03-06T14:33:44;8.00;98.00
2825;DHT22;1420;51.324;12.344;2024-03-06T14:36:12;8.00;98.90
2825;DHT22;1420;51.324;12.344;2024-03-06T14:38:39;8.00;99.30
2825;DHT22;1420;51.324;12.344;2024-03-06T14:41:06;8.10;99.80
2825;DHT22;1420;51.324;12.344;2024-03-06T14:43:33;8.00;99.60
2825;DHT22;1420;51.324;12.344;2024-03-06T14:46:00;8.00;99.90
2825;DHT22;1420;51.324;12.344;2024-03-06T14:48:28;7.90;99.90
2825;DHT22;1420;51.324;12.344;2024-03-06T14:50:55;7.90;99.90
2825;DHT22;1420;51.324;12.344;2024-03-06T14:53:22;7.90;99.90
2825;DHT22;1420;51.324;12.344;2024-03-06T14:55:49;8.00;99.90
2825;DHT22;1420;51.324;12.344;2024-03-06T14:58:16;8.10;99.90
2825;DHT22;1420;51.324;12.344;2024-03-06T15:00:44;8.20;99.90
2825;DHT22;1420;51.324;12.344;2024-03-06T15:03:11;8.00;99.90
2825;DHT22;1420;51.324;12.344;2024-03-06T15:05:38;8.00;99.90
2825;DHT22;1420;51.324;12.344;2024-03-06T15:08:05;8.00;99.90
2825;DHT22;1420;51.324;12.344;2024-03-06T15:10:33;7.90;99.90
2825;DHT22;1420;51.324;12.344;2024-03-06T15:13:00;7.90;99.90
2825;DHT22;1420;51.324;12.344;2024-03-06T15:15:27;8.00;99.90
2825;DHT22;1420;51.324;12.344;2024-03-06T15:17:54;8.00;99.90
2825;DHT22;1420;51.324;12.344;2024-03-06T15:20:22;7.70;99.90
2825;DHT22;1420;51.324;12.344;2024-03-06T15:22:50;7.80;99.90
2825;DHT22;1420;51.324;12.344;2024-03-06T15:25:18;7.70;99.90
2825;DHT22;1420;51.324;12.344;2024-03-06T15:27:45;7.60;99.90
2825;DHT22;1420;51.324;12.344;2024-03-06T15:30:13;7.70;99.90
2825;DHT22;1420;51.324;12.344;2024-03-06T15:32:40;7.80;99.90
2825;DHT22;1420;51.324;12.344;2024-03-06T15:35:08;7.90;99.90
2825;DHT22;1420;51.324;12.344;2024-03-06T15:37:35;8.10;99.90
2825;DHT22;1420;51.324;12.344;2024-03-06T15:40:02;8.20;99.90
2825;DHT22;1420;51.324;12.344;2024-03-06T15:42:29;8.10;99.90
2825;DHT22;1420;51.324;12.344;2024-03-06T15:44:57;8.10;99.90
2825;DHT22;1420;51.324;12.344;2024-03-06T15:47:24;8.10;99.90
2825;DHT22;1420;51.324;12.344;2024-03-06T15:49:51;8.00;99.90
2825;DHT22;1420;51.324;12.344;2024-03-06T15:52:18;8.00;99.90
2825;DHT22;1420;51.324;12.344;2024-03-06T15:54:45;7.90;99.90
2825;DHT22;1420;51.324;12.344;2024-03-06T15:57:13;7.80;99.90
2825;DHT22;1420;51.324;12.344;2024-03-06T15:59:40;7.80;99.90
2825;DHT22;1420;51.324;12.344;2024-03-06T16:02:07;7.80;99.90
2825;DHT22;1420;51.324;12.344;2024-03-06T16:04:34;7.70;99.90
2825;DHT22;1420;51.324;12.344;2024-03-06T16:07:01;7.70;99.90